Time;durP1;ratioP1;P1;durP2;ratioP2;P2;SDS_P1;SDS_P2;PMS_P1;PMS_P2;Temp;Humidity;BMP_temperature;BMP_pressure;BME280_temperature;BME280_humidity;BME280_pressure;Samples;Min_cycle;Max_cycle;Signal;HPM_P1;HPM_P2
2021/03/08 00:01:57;;;;;;;0.77;0.77;;;;;;;-2.28;86.54;99099.53;5077785;28;20077;-86
2021/03/08 00:04:23;;;;;;;0.77;0.77;;;;;;;-2.30;86.47;99093.69;5076835;28;20472;-86
2021/03/08 00:06:48;;;;;;;0.57;0.57;;;;;;;-1.87;87.43;99147.91;5076570;28;20082;-87
2021/03/08 00:09:14;;;;;;;0.93;0.93;;;;;;;-1.94;87.23;99149.66;5094827;28;20110;-87
2021/03/08 00:11:40;;;;;;;0.40;0.40;;;;;;;-1.99;87.02;99145.25;5076832;28;20032;-86
2021/03/08 00:14:05;;;;;;;3.33;2.95;;;;;;;-1.88;87.46;99145.56;5076486;28;20403;-86
2021/03/08 00:16:31;;;;;;;1.95;1.83;;;;;;;-1.85;87.68;99136.75;5076776;28;20043;-86
2021/03/08 00:18:56;;;;;;;0.65;0.65;;;;;;;-2.06;86.80;99120.69;5076290;28;20480;-85
2021/03/08 00:21:22;;;;;;;1.25;1.25;;;;;;;-1.95;87.64;99151.56;5075890;28;20404;-88
2021/03/08 00:23:47;;;;;;;0.50;0.50;;;;;;;-2.22;88.47;99104.34;5076688;28;20036;-86
2021/03/08 00:26:13;;;;;;;2.05;1.95;;;;;;;-1.96;87.43;99122.91;5059338;28;20070;-87
2021/03/08 00:28:38;;;;;;;0.93;0.93;;;;;;;-1.96;87.42;99071.47;5076468;28;20039;-87
2021/03/08 00:31:04;;;;;;;0.95;0.95;;;;;;;-1.91;86.52;99054.97;5076450;28;20452;-86
2021/03/08 00:33:29;;;;;;;1.08;1.08;;;;;;;-1.91;86.58;99079.34;5076493;28;20051;-85
2021/03/08 00:35:55;;;;;;;1.95;1.85;;;;;;;-2.00;86.78;99045.44;5076651;28;20526;-88
2021/03/08 00:38:20;;;;;;;8.98;1.15;;;;;;;-1.93;85.92;99062.66;5077206;28;20400;-86
2021/03/08 00:40:46;;;;;;;0.40;0.40;;;;;;;-1.96;86.78;99049.81;5076271;28;20487;-86
2021/03/08 00:43:11;;;;;;;0.82;0.82;;;;;;;-1.55;86.49;99104.69;5076335;28;20098;-86
2021/03/08 00:45:37;;;;;;;0.38;0.38;;;;;;;-1.86;86.28;99046.59;5076616;28;20112;-86
2021/03/08 00:48:03;;;;;;;4.20;0.90;;;;;;;-1.79;86.11;99054.13;5084474;28;20024;-87
2021/03/08 00:50:29;;;;;;;2.85;2.65;;;;;;;-1.83;85.87;99043.22;5084614;28;20484;-88
2021/03/08 00:52:55;;;;;;;1.85;1.63;;;;;;;-1.58;85.77;99056.63;5083544;28;20028;-88
2021/03/08 00:55:21;;;;;;;0.43;0.43;;;;;;;-1.87;85.80;99052.38;5082883;28;20399;-87
2021/03/08 00:57:47;;;;;;;0.88;0.88;;;;;;;-2.46;85.80;98969.94;5081803;28;20059;-87
2021/03/08 01:00:15;;;;;;;0.50;0.50;;;;;;;-1.99;86.29;99025.34;5081951;28;20032;-88
2021/03/08 01:02:41;;;;;;;0.47;0.47;;;;;;;-2.17;86.62;99033.00;5084893;28;20047;-88
2021/03/08 01:05:08;;;;;;;0.73;0.73;;;;;;;-2.19;85.91;98995.44;5083604;28;20032;-85
2021/03/08 01:07:33;;;;;;;0.80;0.80;;;;;;;-1.81;86.75;99042.88;5081621;28;20561;-87
2021/03/08 01:09:59;;;;;;;0.35;0.35;;;;;;;-1.63;85.69;99068.50;5081709;28;20028;-85
2021/03/08 01:12:25;;;;;;;0.70;0.70;;;;;;;-2.20;85.68;98979.53;5081009;28;20415;-85
2021/03/08 01:14:50;;;;;;;1.05;1.05;;;;;;;-1.62;85.80;99059.22;5080400;28;20480;-87
2021/03/08 01:17:16;;;;;;;1.15;1.15;;;;;;;-2.05;85.85;98992.34;5082192;28;20032;-87
2021/03/08 01:19:42;;;;;;;0.73;0.73;;;;;;;-1.73;86.15;99037.28;5081152;28;20087;-88
2021/03/08 01:22:08;;;;;;;1.45;1.45;;;;;;;-1.92;86.06;98998.44;5080992;28;20024;-88
2021/03/08 01:24:34;;;;;;;2.70;2.58;;;;;;;-1.85;85.55;99029.22;5081215;28;20140;-86
2021/03/08 01:26:59;;;;;;;0.52;0.52;;;;;;;-1.71;85.32;99037.75;5081415;28;20116;-88
2021/03/08 01:29:25;;;;;;;0.40;0.40;;;;;;;-1.56;85.23;99041.59;5080788;28;20032;-87
2021/03/08 01:31:50;;;;;;;0.90;0.90;;;;;;;-1.83;84.79;99001.81;5080236;28;20028;-86
2021/03/08 01:34:16;;;;;;;0.75;0.75;;;;;;;-1.74;84.94;99033.00;5079225;28;20035;-87
2021/03/08 01:36:41;;;;;;;1.05;1.05;;;;;;;-1.85;85.04;99004.84;5080158;28;20035;-87
2021/03/08 01:39:07;;;;;;;3.03;1.73;;;;;;;-2.01;84.59;98993.22;5097900;28;20055;-84
2021/03/08 01:41:33;;;;;;;0.77;0.77;;;;;;;-1.74;84.91;99022.16;5079062;28;20036;-87
2021/03/08 01:43:58;;;;;;;0.45;0.45;;;;;;;-1.76;85.09;99032.56;5079013;28;20381;-86
2021/03/08 01:46:24;;;;;;;0.75;0.75;;;;;;;-1.74;85.69;99054.66;5079395;28;20024;-87
2021/03/08 01:48:52;;;;;;;0.82;0.82;;;;;;;-2.33;85.61;98943.63;5079129;28;20032;-86
2021/03/08 01:51:17;;;;;;;;;;;;;;;-1.78;86.08;99029.41;5080360;28;20063;-88
2021/03/08 01:53:43;;;;;;;0.65;0.65;;;;;;;-2.20;86.27;99001.19;5079990;28;19908;-87
2021/03/08 01:56:09;;;;;;;0.40;0.40;;;;;;;-1.82;85.78;99019.63;5097103;28;20035;-86
2021/03/08 01:58:35;;;;;;;2.50;2.30;;;;;;;-1.95;85.87;99002.66;5078185;28;20020;-85
2021/03/08 02:01:00;;;;;;;1.55;1.55;;;;;;;-1.85;85.71;99004.06;5078823;28;20491;-87
2021/03/08 02:03:26;;;;;;;0.30;0.30;;;;;;;-2.59;86.20;98879.13;5078474;28;20035;-85
2021/03/08 02:05:52;;;;;;;0.40;0.40;;;;;;;-1.61;85.57;99013.97;5079858;28;20032;-85
2021/03/08 02:08:21;;;;;;;0.40;0.40;;;;;;;-1.57;85.51;99017.56;5078423;28;20456;-83
2021/03/08 02:10:48;;;;;;;1.00;1.00;;;;;;;-1.53;85.15;99035.50;5078308;28;20028;-86
2021/03/08 02:13:32;;;;;;;1.33;1.33;;;;;;;-1.53;84.65;99015.72;5078529;28;20567;-87
2021/03/08 02:16:41;;;;;;;0.57;0.57;;;;;;;-1.84;84.65;98978.56;5078614;28;20029;-86
2021/03/08 02:19:27;;;;;;;0.40;0.40;;;;;;;-1.61;84.06;99025.59;5078389;28;20055;-85
2021/03/08 02:22:11;;;;;;;0.40;0.40;;;;;;;-1.70;84.25;99011.44;5078431;28;20023;-86
2021/03/08 02:25:16;;;;;;;0.95;0.95;;;;;;;-1.56;85.13;99016.41;5078618;28;20487;-88
2021/03/08 02:27:41;;;;;;;0.68;0.68;;;;;;;-2.23;85.14;98926.88;5078156;28;20035;-87
2021/03/08 02:30:37;;;;;;;3.20;3.00;;;;;;;-1.70;84.96;99014.16;5079148;28;20032;-87
2021/03/08 02:33:06;;;;;;;0.40;0.40;;;;;;;-2.16;85.67;98946.00;5078534;28;20024;-86
2021/03/08 02:35:34;;;;;;;1.05;1.05;;;;;;;-2.09;85.12;98956.25;5078297;28;20093;-87
2021/03/08 02:38:04;;;;;;;0.95;0.95;;;;;;;-2.11;85.65;98950.41;5077669;28;20040;-87
2021/03/08 02:40:34;;;;;;;6.40;1.10;;;;;;;-2.17;85.65;98965.31;5078228;28;20032;-86
2021/03/08 02:43:01;;;;;;;2.92;1.77;;;;;;;-1.99;85.79;98996.38;5078141;28;20028;-87
2021/03/08 02:45:29;;;;;;;0.45;0.45;;;;;;;-2.24;86.40;98948.91;5080246;28;20040;-88
2021/03/08 02:47:57;;;;;;;2.22;2.13;;;;;;;-2.33;85.66;98957.16;5081603;28;20147;-87
2021/03/08 02:50:27;;;;;;;1.45;1.45;;;;;;;-2.57;85.06;98954.53;5079136;28;20036;-88
2021/03/08 02:53:16;;;;;;;0.88;0.82;;;;;;;-2.53;85.93;99002.19;5080144;28;20016;-88
2021/03/08 02:55:49;;;;;;;0.73;0.73;;;;;;;-2.65;87.93;98971.69;5079651;28;20160;-88
2021/03/08 02:58:17;;;;;;;0.40;0.40;;;;;;;-2.58;87.79;98971.88;5079798;28;20100;-88
2021/03/08 03:01:09;;;;;;;0.80;0.80;;;;;;;-2.37;87.36;98987.94;5080666;28;20138;-88
2021/03/08 03:03:39;;;;;;;0.40;0.40;;;;;;;-2.47;87.97;98962.94;5081095;28;20036;-87
2021/03/08 03:06:09;;;;;;;0.70;0.70;;;;;;;-2.21;88.15;98984.16;5079630;28;20028;-85
2021/03/08 03:08:37;;;;;;;2.55;2.40;;;;;;;-2.17;88.26;98976.91;5078218;28;20487;-86
2021/03/08 03:11:03;;;;;;;0.98;0.98;;;;;;;-2.00;87.95;98958.81;5077599;28;20028;-86
2021/03/08 03:13:30;;;;;;;0.60;0.60;;;;;;;-1.98;86.69;98989.78;5077387;28;20024;-85
2021/03/08 03:15:58;;;;;;;1.88;1.77;;;;;;;-1.86;85.97;98992.44;5077995;28;20028;-87
2021/03/08 03:18:26;;;;;;;0.30;0.30;;;;;;;-2.26;85.73;98938.41;5077449;28;20048;-87
2021/03/08 03:20:53;;;;;;;1.15;1.15;;;;;;;-2.21;85.79;98931.94;5077664;28;20059;-85
2021/03/08 03:23:21;;;;;;;1.00;1.00;;;;;;;-2.01;85.65;98949.09;5077680;28;20059;-84
2021/03/08 03:25:48;;;;;;;0.40;0.40;;;;;;;-1.89;86.12;98968.78;5077329;28;20067;-85
2021/03/08 03:28:15;;;;;;;1.63;1.55;;;;;;;-2.14;86.10;98922.09;5077493;28;20028;-86
2021/03/08 03:30:41;;;;;;;0.82;0.82;;;;;;;-2.08;85.72;98917.22;5077368;28;20028;-85
2021/03/08 03:33:07;;;;;;;0.73;0.73;;;;;;;-2.39;84.61;98900.91;5077632;28;20036;-85
2021/03/08 03:35:33;;;;;;;0.50;0.50;;;;;;;-2.19;85.33;98975.69;5077017;28;20403;-85
2021/03/08 03:38:01;;;;;;;1.23;1.23;;;;;;;-2.57;86.74;98917.47;5076809;28;20024;-85
2021/03/08 03:40:27;;;;;;;0.93;0.93;;;;;;;-2.71;87.86;98913.59;5077027;28;20032;-87
2021/03/08 03:42:54;;;;;;;0.80;0.80;;;;;;;-2.62;87.78;98901.47;5077174;28;20130;-84
2021/03/08 03:45:21;;;;;;;3.20;2.07;;;;;;;-2.35;87.23;98940.47;5076848;28;20024;-85
2021/03/08 03:47:47;;;;;;;0.40;0.40;;;;;;;-2.32;86.98;98964.13;5076258;28;20028;-86
2021/03/08 03:50:17;;;;;;;0.40;0.40;;;;;;;-2.51;86.80;98940.44;5076171;28;20032;-85
2021/03/08 03:52:43;;;;;;;3.88;1.35;;;;;;;-2.56;86.63;98929.06;5076825;28;20057;-83
2021/03/08 03:55:11;;;;;;;0.50;0.50;;;;;;;-2.68;86.35;98929.91;5076388;28;20498;-83
2021/03/08 03:58:05;;;;;;;0.65;0.65;;;;;;;-2.95;86.11;98942.22;5076221;28;20030;-83
2021/03/08 04:00:38;;;;;;;0.38;0.38;;;;;;;-3.17;86.46;98904.91;5075707;28;20039;-86
2021/03/08 04:03:11;;;;;;;0.52;0.52;;;;;;;-2.90;87.96;98970.97;5076471;28;20470;-85
2021/03/08 04:05:39;;;;;;;0.40;0.40;;;;;;;-2.78;88.98;98970.16;5075992;28;20550;-88
2021/03/08 04:08:06;;;;;;;0.45;0.45;;;;;;;-2.75;89.05;98943.22;5076297;28;20036;-86
2021/03/08 04:10:33;;;;;;;0.80;0.80;;;;;;;-2.75;88.38;98939.72;5076516;28;20028;-87
2021/03/08 04:13:11;;;;;;;0.47;0.47;;;;;;;-2.65;88.48;98971.69;5094838;28;20043;-87
2021/03/08 04:15:38;;;;;;;0.70;0.70;;;;;;;-2.74;87.94;98969.13;5077552;28;20111;-86
2021/03/08 04:18:05;;;;;;;5.88;3.42;;;;;;;-2.77;87.32;98975.19;5076246;28;20085;-85
2021/03/08 04:20:32;;;;;;;1.10;1.10;;;;;;;-3.08;87.70;98927.19;5075136;28;20024;-86
2021/03/08 04:23:04;;;;;;;1.45;1.42;;;;;;;-2.87;87.70;98970.28;5076125;28;20040;-87
2021/03/08 04:25:31;;;;;;;2.72;0.65;;;;;;;-3.23;87.36;98922.47;5079271;28;20116;-88
2021/03/08 04:27:59;;;;;;;0.95;0.90;;;;;;;-3.30;88.53;98920.34;5079745;28;20028;-88
2021/03/08 04:30:25;;;;;;;0.93;0.93;;;;;;;-2.98;89.37;98972.66;5078845;28;20036;-87
2021/03/08 04:32:53;;;;;;;0.98;0.98;;;;;;;-3.38;88.70;98940.16;5078728;28;20036;-85
2021/03/08 04:35:20;;;;;;;0.40;0.40;;;;;;;-3.55;88.77;98939.56;5077819;28;20028;-88
2021/03/08 04:37:47;;;;;;;1.02;1.02;;;;;;;-3.31;88.13;98972.00;5078001;28;20051;-85
2021/03/08 04:40:15;;;;;;;0.70;0.70;;;;;;;-3.57;88.12;98928.34;5059735;28;20549;-86
2021/03/08 04:42:43;;;;;;;0.52;0.52;;;;;;;-3.60;88.83;98929.81;5075562;28;20028;-87
2021/03/08 04:45:15;;;;;;;8.88;2.78;;;;;;;-3.32;89.71;98983.94;5076458;28;20039;-87
2021/03/08 04:47:41;;;;;;;0.80;0.80;;;;;;;-3.63;89.99;98935.88;5076947;28;20024;-85
2021/03/08 04:50:09;;;;;;;0.40;0.40;;;;;;;-3.50;89.45;98939.38;5076331;28;20024;-84
2021/03/08 04:52:37;;;;;;;2.60;2.50;;;;;;;-3.31;89.37;98977.41;5075560;28;20024;-84
2021/03/08 04:55:06;;;;;;;0.75;0.75;;;;;;;-3.51;88.04;98962.91;5075722;28;20435;-85
2021/03/08 04:57:33;;;;;;;0.85;0.77;;;;;;;-3.51;88.91;98954.00;5076017;28;20028;-85
2021/03/08 04:59:59;;;;;;;1.08;1.08;;;;;;;-3.73;89.97;98915.50;5075897;28;20119;-85
2021/03/08 05:02:25;;;;;;;0.47;0.47;;;;;;;-3.30;90.88;98952.75;5075614;28;20478;-85
2021/03/08 05:04:52;;;;;;;0.40;0.40;;;;;;;-2.93;90.58;98988.63;5076200;28;20028;-85
2021/03/08 05:07:24;;;;;;;0.40;0.40;;;;;;;-3.20;90.04;98899.41;5075406;28;20498;-82
2021/03/08 05:09:53;;;;;;;2.00;1.90;;;;;;;-2.76;89.61;98957.84;5075466;28;20035;-83
2021/03/08 05:12:20;;;;;;;13.63;2.97;;;;;;;-2.62;88.73;98949.38;5075039;28;20039;-84
2021/03/08 05:14:46;;;;;;;0.38;0.38;;;;;;;-2.70;87.33;98925.94;5075592;28;20495;-82
2021/03/08 05:17:17;;;;;;;1.52;1.52;;;;;;;-2.57;86.90;98933.69;5075846;28;20039;-86
2021/03/08 05:19:44;;;;;;;0.40;0.40;;;;;;;-2.24;86.27;98940.78;5075178;28;20056;-87
2021/03/08 05:22:11;;;;;;;0.63;0.63;;;;;;;-2.27;85.22;98914.38;5075599;28;20500;-86
2021/03/08 05:24:38;;;;;;;2.63;2.40;;;;;;;-1.67;85.16;98970.91;5074853;28;20458;-86
2021/03/08 05:27:08;;;;;;;1.20;1.20;;;;;;;-1.65;83.14;98928.00;5075207;28;20123;-87
2021/03/08 05:29:45;;;;;;;1.23;1.23;;;;;;;-0.70;79.92;98960.34;5076809;28;20028;-89
2021/03/08 05:32:15;;;;;;;1.63;1.53;;;;;;;0.03;78.08;99002.94;5079473;28;20035;-88
2021/03/08 05:34:46;;;;;;;2.72;2.53;;;;;;;0.45;75.44;98957.53;5080902;28;20025;-88
2021/03/08 05:37:17;;;;;;;1.98;1.88;;;;;;;0.57;73.77;98946.47;5101377;28;20073;-88
2021/03/08 05:39:43;;;;;;;1.45;1.38;;;;;;;0.37;73.06;98856.06;5084061;28;20103;-87
2021/03/08 05:42:12;;;;;;;0.88;0.88;;;;;;;0.72;72.13;98861.25;5082193;28;20020;-87
2021/03/08 05:44:51;;;;;;;0.43;0.43;;;;;;;1.64;70.61;98935.91;5079910;28;20408;-84
2021/03/08 05:47:54;;;;;;;0.65;0.65;;;;;;;2.52;68.41;98969.94;5081585;28;20034;-81
2021/03/08 05:50:45;;;;;;;0.35;0.35;;;;;;;3.67;66.42;98984.75;5079549;28;20031;-82
2021/03/08 05:53:22;;;;;;;0.70;0.70;;;;;;;4.27;63.94;98984.97;5096592;28;20032;-76
2021/03/08 05:56:36;;;;;;;1.65;1.55;;;;;;;4.17;62.49;98936.50;5078123;28;20066;-75
2021/03/08 05:59:42;;;;;;;2.20;1.88;;;;;;;5.42;59.29;98979.13;5017456;28;20506;-79
2021/03/08 06:02:52;;;;;;;1.05;1.05;;;;;;;5.95;58.14;98983.66;5078290;28;20115;-75
2021/03/08 06:05:23;;;;;;;1.67;1.58;;;;;;;6.51;55.96;98982.56;5096303;28;20032;-77
2021/03/08 06:08:06;;;;;;;1.60;1.50;;;;;;;7.34;53.72;98982.28;5077684;28;20119;-76
2021/03/08 06:10:46;;;;;;;2.97;2.78;;;;;;;7.84;52.45;98981.72;5077138;28;20058;-76
2021/03/08 06:13:15;;;;;;;1.10;1.10;;;;;;;8.21;50.64;98971.81;5077797;28;20028;-73
2021/03/08 06:15:48;;;;;;;7.57;0.77;;;;;;;8.33;50.25;98985.06;5082986;28;20028;-77
2021/03/08 06:18:14;;;;;;;4.38;3.15;;;;;;;7.88;50.84;98949.47;5082886;28;20048;-77
2021/03/08 06:20:39;;;;;;;1.35;1.17;;;;;;;7.56;51.29;98949.06;5082477;28;20081;-75
2021/03/08 06:23:05;;;;;;;2.00;1.10;;;;;;;7.26;52.74;98931.31;5076987;28;20089;-76
2021/03/08 06:25:31;;;;;;;4.18;1.00;;;;;;;7.27;52.66;98960.38;5077007;28;20035;-76
2021/03/08 06:27:57;;;;;;;0.60;0.60;;;;;;;7.02;52.52;98967.28;5077200;28;20439;-80
2021/03/08 06:30:24;;;;;;;1.90;1.80;;;;;;;7.44;51.50;98941.34;5077143;28;20082;-77
2021/03/08 06:32:50;;;;;;;0.75;0.75;;;;;;;8.09;49.48;98962.94;5077021;28;20495;-76
2021/03/08 06:35:16;;;;;;;3.33;3.13;;;;;;;8.39;49.71;98989.69;5076894;28;20055;-75
2021/03/08 06:37:42;;;;;;;1.25;1.20;;;;;;;8.38;49.12;98957.84;5076481;28;20047;-75
2021/03/08 06:40:11;;;;;;;2.38;2.28;;;;;;;9.21;48.65;98985.69;5076598;28;20024;-75
2021/03/08 06:42:37;;;;;;;1.50;1.40;;;;;;;9.55;47.01;98972.44;5076528;28;20024;-74
2021/03/08 06:45:06;;;;;;;1.13;1.13;;;;;;;9.90;45.63;98975.72;5076086;28;20028;-74
2021/03/08 06:47:31;;;;;;;1.25;1.25;;;;;;;10.02;45.84;98969.53;5076294;28;20028;-75
2021/03/08 06:49:58;;;;;;;2.22;2.05;;;;;;;9.55;47.53;98935.81;5077016;28;20028;-75
2021/03/08 06:52:24;;;;;;;3.00;0.88;;;;;;;9.79;45.78;98924.28;5076457;28;20028;-74
2021/03/08 06:55:01;;;;;;;4.85;2.50;;;;;;;9.46;47.64;98944.66;5076244;28;20055;-74
2021/03/08 06:57:32;;;;;;;1.10;1.02;;;;;;;9.46;46.61;98930.09;5076178;28;20115;-75
2021/03/08 06:59:59;;;;;;;1.35;1.35;;;;;;;9.62;48.09;98975.06;5076178;28;20036;-78
2021/03/08 07:02:44;;;;;;;4.10;2.38;;;;;;;10.30;46.60;98973.72;5076210;28;20051;-79
2021/03/08 07:05:15;;;;;;;1.65;1.55;;;;;;;9.61;47.49;98934.91;5076221;28;20030;-77
2021/03/08 07:07:46;;;;;;;1.30;1.30;;;;;;;11.31;44.05;98980.00;5075821;28;20035;-80
2021/03/08 07:10:12;;;;;;;3.70;2.17;;;;;;;11.49;43.94;98974.78;5075686;28;20063;-79
2021/03/08 07:12:49;;;;;;;1.65;1.55;;;;;;;12.28;41.96;98957.53;5076015;28;20059;-80
2021/03/08 07:15:15;;;;;;;2.55;2.35;;;;;;;12.37;40.78;98959.66;5075945;28;20081;-79
2021/03/08 07:17:41;;;;;;;1.55;1.45;;;;;;;11.87;41.25;98908.53;5075403;28;20036;-73
2021/03/08 07:20:11;;;;;;;0.90;0.90;;;;;;;11.27;42.92;98957.94;5093838;28;20518;-77
2021/03/08 07:22:36;;;;;;;1.85;1.75;;;;;;;10.10;45.55;98930.34;5075169;28;20039;-72
2021/03/08 07:25:06;;;;;;;0.88;0.88;;;;;;;9.37;47.36;98953.47;5075779;28;20058;-79
2021/03/08 07:27:41;;;;;;;3.05;2.47;;;;;;;8.80;49.76;98958.41;5075093;28;20035;-79
2021/03/08 07:30:08;;;;;;;2.00;1.88;;;;;;;8.18;51.28;98919.19;5075859;28;20028;-79
2021/03/08 07:32:59;;;;;;;1.70;1.60;;;;;;;7.70;52.42;98946.16;5075949;28;20028;-74
2021/03/08 07:35:41;;;;;;;3.92;2.35;;;;;;;7.20;53.47;98916.47;5076553;28;20081;-77
2021/03/08 07:38:10;;;;;;;1.83;1.77;;;;;;;6.91;54.16;98904.97;5076676;28;20040;-76
2021/03/08 07:40:37;;;;;;;1.73;1.63;;;;;;;7.28;54.06;98939.16;5076035;28;20118;-76
2021/03/08 07:43:03;;;;;;;4.38;3.70;;;;;;;6.89;55.34;98929.31;5075622;28;20069;-75
2021/03/08 07:45:44;;;;;;;8.50;2.67;;;;;;;7.00;56.21;98923.72;5074058;28;20032;-75
2021/03/08 07:48:11;;;;;;;1.83;1.70;;;;;;;7.13;54.97;98952.25;5092328;28;20476;-73
2021/03/08 07:50:37;;;;;;;2.25;2.08;;;;;;;6.64;56.29;98864.81;5074006;28;20058;-76
2021/03/08 07:53:02;;;;;;;1.20;1.20;;;;;;;6.38;58.30;98905.44;5074829;28;20035;-79
2021/03/08 07:55:37;;;;;;;2.95;2.75;;;;;;;6.49;57.92;98886.91;5075779;28;20078;-76
2021/03/08 07:58:04;;;;;;;1.60;1.60;;;;;;;6.41;57.78;98859.91;5076287;28;20031;-74
2021/03/08 08:00:32;;;;;;;2.97;2.80;;;;;;;6.63;57.45;98883.25;5075881;28;20484;-73
2021/03/08 08:02:58;;;;;;;6.05;3.63;;;;;;;6.90;57.18;98899.88;5075672;28;20027;-77
2021/03/08 08:05:24;;;;;;;3.28;3.08;;;;;;;6.80;56.19;98873.31;5075634;28;20028;-76
2021/03/08 08:07:51;;;;;;;2.58;2.42;;;;;;;7.34;57.46;98932.03;5075565;28;20036;-74
2021/03/08 08:10:19;;;;;;;2.90;2.00;;;;;;;6.94;57.06;98908.88;5075386;28;20555;-76
2021/03/08 08:12:49;;;;;;;1.98;1.63;;;;;;;7.12;56.00;98925.94;5075392;28;20035;-76
2021/03/08 08:15:18;;;;;;;2.42;2.35;;;;;;;7.24;56.40;98905.41;5075548;28;20040;-73
2021/03/08 08:17:46;;;;;;;4.90;3.00;;;;;;;7.12;56.94;98901.22;5075367;28;20035;-73
2021/03/08 08:20:13;;;;;;;2.45;2.35;;;;;;;6.84;57.35;98858.34;5075311;28;20549;-75
2021/03/08 08:22:51;;;;;;;3.63;2.33;;;;;;;6.94;57.51;98919.84;5075842;28;20487;-74
2021/03/08 08:25:17;;;;;;;;;;;;;;;6.86;57.96;98901.91;5075965;28;20475;-73
2021/03/08 08:27:43;;;;;;;2.53;2.33;;;;;;;6.18;57.77;98791.13;5075351;28;19966;-76
2021/03/08 08:30:09;;;;;;;2.00;1.85;;;;;;;7.06;56.80;98858.13;5075589;28;20501;-74
2021/03/08 08:33:25;;;;;;;1.50;1.40;;;;;;;6.56;57.12;98833.94;5075156;28;20055;-80
2021/03/08 08:36:07;;;;;;;3.67;1.42;;;;;;;6.64;56.99;98826.38;4975521;28;20034;-79
2021/03/08 08:38:33;;;;;;;3.30;3.00;;;;;;;7.28;58.29;98895.97;4975350;28;20038;-80
2021/03/08 08:41:21;;;;;;;1.13;1.13;;;;;;;6.99;56.69;98841.75;5041056;28;20498;-77
2021/03/08 08:44:08;;;;;;;3.05;2.08;;;;;;;6.95;56.61;98861.00;5075084;28;20024;-80
2021/03/08 08:46:41;;;;;;;1.00;1.00;;;;;;;6.91;55.28;98873.97;5074967;28;20059;-80
2021/03/08 08:49:12;;;;;;;2.55;2.35;;;;;;;7.11;54.23;98831.00;5075010;28;20052;-79
2021/03/08 08:51:57;;;;;;;1.90;1.80;;;;;;;7.50;52.79;98846.22;5075314;28;20039;-79
2021/03/08 08:54:28;;;;;;;0.70;0.70;;;;;;;7.33;52.03;98887.28;5075347;28;20032;-78
2021/03/08 08:56:58;;;;;;;2.40;1.63;;;;;;;7.38;54.38;98820.06;5074852;28;20036;-79
2021/03/08 08:59:28;;;;;;;0.65;0.65;;;;;;;7.47;51.57;98871.81;5074997;28;20024;-78
2021/03/08 09:02:29;;;;;;;2.83;1.45;;;;;;;6.99;53.17;98837.03;5074793;28;20098;-78
2021/03/08 09:04:54;;;;;;;1.98;1.77;;;;;;;7.09;54.32;98833.38;5074818;28;20028;-79
2021/03/08 09:07:22;;;;;;;2.40;2.22;;;;;;;6.70;54.36;98824.75;5080311;28;20146;-85
2021/03/08 09:09:48;;;;;;;0.93;0.93;;;;;;;7.21;56.00;98867.78;5081274;28;20028;-75
2021/03/08 09:12:38;;;;;;;2.88;1.77;;;;;;;7.30;56.84;98824.09;5079993;28;20067;-76
2021/03/08 09:15:10;;;;;;;2.42;1.95;;;;;;;7.52;58.03;98813.63;5078958;28;20028;-73
2021/03/08 09:17:41;;;;;;;3.72;3.47;;;;;;;8.17;55.97;98868.09;5079162;28;20067;-76
2021/03/08 09:20:06;;;;;;;3.42;3.03;;;;;;;8.11;55.26;98853.25;5078777;28;20075;-73
2021/03/08 09:22:34;;;;;;;3.88;2.40;;;;;;;7.48;55.61;98790.88;5078913;28;20048;-75
2021/03/08 09:25:08;;;;;;;6.35;3.92;;;;;;;8.00;56.27;98847.13;5079201;28;20476;-73
2021/03/08 09:27:38;;;;;;;5.88;2.92;;;;;;;7.91;55.75;98777.28;5078982;28;20028;-74
2021/03/08 09:30:08;;;;;;;4.00;3.67;;;;;;;8.23;54.12;98818.06;5078497;28;20028;-74
2021/03/08 09:32:34;;;;;;;4.68;1.70;;;;;;;8.04;54.16;98806.56;5078509;28;20047;-73
2021/03/08 09:35:05;;;;;;;1.92;1.80;;;;;;;8.21;54.42;98782.69;5078432;28;20126;-76
2021/03/08 09:37:31;;;;;;;1.90;1.80;;;;;;;8.23;52.94;98765.78;5096315;28;20028;-77
2021/03/08 09:39:59;;;;;;;1.70;1.60;;;;;;;8.46;54.98;98796.88;5078207;28;20043;-73
2021/03/08 09:42:32;;;;;;;5.90;3.70;;;;;;;8.26;53.33;98753.94;5078153;28;20031;-74
2021/03/08 09:44:57;;;;;;;2.30;2.08;;;;;;;8.35;54.84;98737.69;5078293;28;20067;-78
2021/03/08 09:47:37;;;;;;;3.20;2.60;;;;;;;9.02;52.99;98794.25;5078232;28;20505;-76
2021/03/08 09:50:04;;;;;;;2.05;1.95;;;;;;;8.53;50.73;98790.47;5078170;28;20031;-76
2021/03/08 09:52:33;;;;;;;7.15;1.77;;;;;;;8.31;51.13;98781.78;5078460;28;20035;-75
2021/03/08 09:54:59;;;;;;;2.08;1.98;;;;;;;8.36;52.20;98758.50;5078338;28;20553;-76
2021/03/08 09:57:42;;;;;;;1.50;1.50;;;;;;;8.71;51.54;98746.84;5078374;28;20034;-75
2021/03/08 10:00:10;;;;;;;1.58;1.48;;;;;;;8.99;50.41;98767.53;5078258;28;20050;-72
2021/03/08 10:02:35;;;;;;;;;;;;;;;9.18;50.45;98772.28;5078243;28;20024;-75
2021/03/08 10:05:01;;;;;;;2.30;1.40;;;;;;;8.95;52.05;98761.34;5077989;28;19918;-74
2021/03/08 10:07:27;;;;;;;7.00;3.35;;;;;;;8.98;50.45;98736.44;5077853;28;20043;-73
2021/03/08 10:10:14;;;;;;;3.08;2.88;;;;;;;8.78;49.14;98740.41;5078146;28;20028;-74
2021/03/08 10:12:40;;;;;;;1.30;1.20;;;;;;;8.81;50.39;98720.28;5077915;28;20486;-74
2021/03/08 10:15:07;;;;;;;2.08;1.08;;;;;;;8.75;48.02;98736.53;5078254;28;20031;-74
2021/03/08 10:17:34;;;;;;;5.30;1.75;;;;;;;8.58;47.60;98677.84;5078092;28;20483;-73
2021/03/08 10:20:01;;;;;;;4.50;2.33;;;;;;;8.86;49.27;98719.81;5076513;28;20052;-77
2021/03/08 10:22:37;;;;;;;1.27;1.20;;;;;;;8.94;47.47;98713.72;5077572;28;20028;-74
2021/03/08 10:25:22;;;;;;;3.20;2.95;;;;;;;8.90;48.83;98687.44;5077635;28;20139;-73
2021/03/08 10:27:55;;;;;;;1.48;1.23;;;;;;;9.32;49.66;98736.16;5077560;28;20020;-73
2021/03/08 10:30:22;;;;;;;2.03;1.88;;;;;;;9.20;48.93;98705.69;5077537;28;20059;-73
2021/03/08 10:32:50;;;;;;;7.78;2.70;;;;;;;9.58;49.69;98755.69;5077644;28;20020;-75
2021/03/08 10:35:16;;;;;;;1.65;1.58;;;;;;;9.82;49.36;98737.00;5077670;28;20067;-77
2021/03/08 10:37:42;;;;;;;3.70;3.40;;;;;;;9.60;50.29;98670.50;5077218;28;20068;-74
2021/03/08 10:40:09;;;;;;;2.40;2.20;;;;;;;9.56;49.02;98675.34;5077197;28;20032;-75
2021/03/08 10:42:37;;;;;;;7.43;2.63;;;;;;;9.79;49.05;98711.81;5077668;28;20028;-76
2021/03/08 10:45:08;;;;;;;7.80;2.03;;;;;;;9.71;48.66;98662.75;5077045;28;20032;-73
2021/03/08 10:47:34;;;;;;;1.30;1.30;;;;;;;9.73;48.17;98683.19;5077008;28;20028;-73
2021/03/08 10:50:00;;;;;;;2.50;2.33;;;;;;;9.96;47.52;98709.81;5077152;28;20027;-74
2021/03/08 10:52:26;;;;;;;1.15;1.15;;;;;;;10.08;49.92;98703.59;5076982;28;20042;-75
2021/03/08 10:54:51;;;;;;;3.22;2.55;;;;;;;10.15;48.89;98647.44;5076869;28;20055;-73
2021/03/08 10:57:17;;;;;;;5.70;3.67;;;;;;;10.06;47.65;98639.78;5076990;28;20060;-76
2021/03/08 10:59:50;;;;;;;2.80;2.65;;;;;;;10.14;47.08;98645.88;5076854;28;20520;-75
2021/03/08 11:02:17;;;;;;;4.35;2.70;;;;;;;9.98;48.21;98634.88;5077114;28;20120;-73
2021/03/08 11:04:48;;;;;;;6.95;4.60;;;;;;;10.54;48.01;98671.28;5076739;28;20028;-76
2021/03/08 11:07:14;;;;;;;3.90;3.03;;;;;;;10.10;47.48;98618.38;5076831;28;20039;-74
2021/03/08 11:09:45;;;;;;;2.53;2.35;;;;;;;10.04;47.32;98602.78;5076938;28;20024;-76
2021/03/08 11:12:23;;;;;;;4.22;2.33;;;;;;;10.34;46.88;98630.00;5076577;28;20055;-77
2021/03/08 11:14:57;;;;;;;3.00;2.25;;;;;;;10.72;47.67;98659.72;5079163;28;20026;-78
2021/03/08 11:17:33;;;;;;;3.25;2.22;;;;;;;10.37;45.97;98639.41;5076977;28;20036;-75
2021/03/08 11:20:09;;;;;;;3.85;3.65;;;;;;;10.33;46.37;98631.19;5077382;28;20055;-76
2021/03/08 11:22:54;;;;;;;2.53;2.33;;;;;;;10.33;45.95;98587.00;5078868;28;20506;-78
2021/03/08 11:25:30;;;;;;;0.82;0.82;;;;;;;10.36;46.06;98607.47;5080390;28;20039;-76
2021/03/08 11:27:57;;;;;;;2.05;1.85;;;;;;;10.70;45.79;98631.75;5076309;28;20091;-74
2021/03/08 11:30:25;;;;;;;2.22;1.65;;;;;;;10.63;45.24;98602.34;5076288;28;20036;-74
2021/03/08 11:32:52;;;;;;;1.38;1.33;;;;;;;10.84;44.51;98614.75;5094056;28;20024;-75
2021/03/08 11:35:19;;;;;;;1.85;1.77;;;;;;;11.12;45.29;98624.94;5076039;28;20032;-76
2021/03/08 11:37:50;;;;;;;11.95;1.90;;;;;;;10.83;44.88;98608.47;5075867;28;20172;-74
2021/03/08 11:40:18;;;;;;;2.17;2.08;;;;;;;10.79;45.57;98579.38;5075988;28;20059;-77
2021/03/08 11:42:43;;;;;;;2.13;2.03;;;;;;;11.00;46.86;98590.56;5075909;28;20450;-75
2021/03/08 11:45:10;;;;;;;1.23;1.13;;;;;;;10.85;44.02;98555.50;5075955;28;20105;-76
2021/03/08 11:47:35;;;;;;;1.35;1.35;;;;;;;10.88;43.80;98574.75;5075787;28;20028;-78
2021/03/08 11:50:01;;;;;;;1.63;1.60;;;;;;;11.16;43.75;98581.38;5076050;28;20031;-73
2021/03/08 11:52:26;;;;;;;3.35;2.08;;;;;;;11.09;44.70;98567.00;5093751;28;20094;-75